Terminal Aerodrome Forecast
Issued by NWS

Home | Current Version | Previous Version | Text Only | Print | Product List | Glossary On
Versions: 1 2 3 4 5 6 7 8 9 10 11 12 13 14 15 16 17 18 19 20
000
FTUS43 KGRB 310500
TAFMTW
TAF
KMTW 310536Z 3106/0106 33003KT P6SM BKN015 BKN040
      TEMPO 3106/3108 4SM BR SCT015
     FM310800 VRB03KT 3SM BR BKN010
      TEMPO 3108/3112 1 1/2SM BR
     FM311300 VRB03KT 5SM BR BKN015
     FM311700 16005KT P6SM SCT025
     FM010400 17005KT P6SM BKN100=

USA.gov is the U.S. government's official web portal to all federal, state and local government web resources and services.